createdAt,value
2022-11-26T00:01:28.253Z,143.53
2022-11-26T00:03:59.675Z,147.27
2022-11-26T00:06:34.786Z,132.60
2022-11-26T00:09:06.177Z,133.00
2022-11-26T00:11:36.791Z,131.47
2022-11-26T00:14:10.834Z,138.87
2022-11-26T00:16:39.725Z,145.20
2022-11-26T00:19:08.666Z,151.03
2022-11-26T00:21:40.292Z,129.70
2022-11-26T00:24:24.131Z,138.67
2022-11-26T00:27:01.467Z,142.47
2022-11-26T00:29:30.430Z,143.00
2022-11-26T00:31:59.429Z,132.80
2022-11-26T00:34:28.461Z,136.03
2022-11-26T00:36:57.417Z,130.87
2022-11-26T00:39:26.635Z,142.10
2022-11-26T00:41:56.971Z,135.27
2022-11-26T00:44:26.973Z,137.93
2022-11-26T00:46:55.899Z,155.77
2022-11-26T00:49:24.776Z,153.63
2022-11-26T00:51:53.711Z,144.70
2022-11-26T00:54:23.577Z,136.77
2022-11-26T00:56:52.472Z,163.97
2022-11-26T00:59:24.386Z,157.63
2022-11-26T01:01:53.460Z,150.63
2022-11-26T01:04:22.516Z,173.57
2022-11-26T01:06:51.671Z,234.77
2022-11-26T01:09:23.493Z,200.27
2022-11-26T01:11:54.467Z,269.17
2022-11-26T01:14:25.429Z,171.07
2022-11-26T01:16:56.468Z,218.60
2022-11-26T01:19:25.497Z,238.60
2022-11-26T01:21:54.436Z,367.43
2022-11-26T01:24:23.486Z,363.00
2022-11-26T01:26:52.426Z,267.00
2022-11-26T01:29:22.241Z,491.87
2022-11-26T01:31:52.758Z,303.80
2022-11-26T01:34:21.971Z,242.13
2022-11-26T01:36:50.827Z,369.20
2022-11-26T01:39:22.804Z,385.77
2022-11-26T01:41:58.369Z,257.10
2022-11-26T01:44:29.800Z,286.43
2022-11-26T01:47:01.752Z,223.90
2022-11-26T01:49:33.025Z,174.07
2022-11-26T01:52:06.492Z,188.47
2022-11-26T01:54:38.165Z,234.50
2022-11-26T01:57:10.861Z,228.13
2022-11-26T01:59:43.850Z,376.47
2022-11-26T02:02:14.314Z,296.30
2022-11-26T02:04:47.973Z,282.77
2022-11-26T02:07:17.084Z,195.90
2022-11-26T02:09:46.677Z,189.23
2022-11-26T02:12:15.782Z,219.10
2022-11-26T02:14:46.050Z,129.13
2022-11-26T02:17:23.576Z,131.03
2022-11-26T02:20:32.737Z,134.40
2022-11-26T02:23:34.492Z,135.67
2022-11-26T02:26:24.872Z,140.67
2022-11-26T02:29:05.071Z,146.97
2022-11-26T02:31:43.352Z,181.43
2022-11-26T02:34:16.948Z,141.37
2022-11-26T02:36:49.991Z,160.97
2022-11-26T02:39:22.007Z,139.93
2022-11-26T02:41:53.702Z,126.83
2022-11-26T02:44:25.833Z,130.77
2022-11-26T02:46:59.313Z,139.70
2022-11-26T02:49:31.560Z,150.20
2022-11-26T02:52:03.642Z,400.47
2022-11-26T02:54:35.404Z,149.23
2022-11-26T02:57:07.295Z,170.77
2022-11-26T02:59:36.816Z,146.93
2022-11-26T03:02:11.081Z,298.00
2022-11-26T03:04:43.693Z,246.23
2022-11-26T03:07:15.071Z,173.10
2022-11-26T03:09:52.087Z,246.43
2022-11-26T03:12:21.539Z,195.93
2022-11-26T03:14:50.677Z,308.97
2022-11-26T03:17:21.175Z,352.00
2022-11-26T03:19:50.257Z,312.07
2022-11-26T03:22:19.221Z,417.13
2022-11-26T03:24:48.251Z,270.40
2022-11-26T03:27:17.223Z,174.43
2022-11-26T03:29:46.188Z,193.93
2022-11-26T03:32:15.113Z,190.33
2022-11-26T03:34:45.450Z,352.10
2022-11-26T03:37:14.597Z,229.57
2022-11-26T03:39:43.676Z,359.10
2022-11-26T03:42:12.692Z,481.23
2022-11-26T03:44:41.812Z,428.47
2022-11-26T03:47:10.733Z,250.60
2022-11-26T03:49:39.783Z,228.27
2022-11-26T03:52:10.402Z,231.83
2022-11-26T03:54:40.429Z,167.23
2022-11-26T03:57:09.521Z,400.60
2022-11-26T03:59:38.540Z,221.87
2022-11-26T04:02:07.497Z,187.87
2022-11-26T04:04:36.893Z,200.20
2022-11-26T04:07:05.925Z,210.33
2022-11-26T04:09:36.266Z,259.73
2022-11-26T04:12:05.379Z,403.43
2022-11-26T04:14:34.430Z,195.60
2022-11-26T04:17:03.405Z,215.87
2022-11-26T04:19:32.687Z,307.43
2022-11-26T04:22:01.596Z,372.37
2022-11-26T04:24:30.737Z,232.53
2022-11-26T04:27:01.149Z,479.10
2022-11-26T04:29:30.182Z,288.73
2022-11-26T04:31:59.177Z,163.77
2022-11-26T04:34:28.186Z,320.37
2022-11-26T04:36:57.315Z,246.03
2022-11-26T04:39:26.437Z,210.60
2022-11-26T04:41:55.411Z,381.23
2022-11-26T04:44:25.987Z,201.10
2022-11-26T04:46:54.932Z,317.47
2022-11-26T04:49:24.100Z,165.90
2022-11-26T04:51:53.075Z,163.60
2022-11-26T04:54:22.117Z,127.20
2022-11-26T04:56:51.112Z,143.53
2022-11-26T04:59:20.166Z,138.60
2022-11-26T05:01:50.478Z,136.13
2022-11-26T05:04:20.482Z,146.57
2022-11-26T05:06:49.467Z,133.03
2022-11-26T05:09:18.427Z,128.93
2022-11-26T05:11:47.378Z,130.00
2022-11-26T05:14:16.374Z,119.57
2022-11-26T05:16:45.338Z,125.80
2022-11-26T05:19:16.129Z,98.97
2022-11-26T05:21:45.317Z,87.47
2022-11-26T05:24:14.269Z,75.73
2022-11-26T05:26:43.183Z,75.10
2022-11-26T05:29:12.582Z,68.50
2022-11-26T05:31:41.620Z,72.87
2022-11-26T05:34:10.668Z,68.17
2022-11-26T05:36:40.997Z,81.63
2022-11-26T05:39:10.217Z,87.43
2022-11-26T05:41:39.152Z,103.37
2022-11-26T05:44:08.146Z,107.47
2022-11-26T05:46:38.217Z,113.83
2022-11-26T05:49:07.193Z,105.30
2022-11-26T05:51:36.192Z,107.90
2022-11-26T05:54:07.691Z,108.20
2022-11-26T05:56:36.612Z,100.83
2022-11-26T05:59:05.596Z,92.73
2022-11-26T06:01:34.605Z,83.13
2022-11-26T06:04:03.737Z,83.10
2022-11-26T06:06:32.741Z,84.37
2022-11-26T06:09:01.665Z,78.00
2022-11-26T06:11:32.052Z,78.50
2022-11-26T06:14:02.163Z,70.63
2022-11-26T06:16:31.118Z,70.63
2022-11-26T06:19:01.277Z,73.53
2022-11-26T06:21:30.306Z,67.63
2022-11-26T06:23:59.886Z,63.33
2022-11-26T06:26:29.051Z,65.90
2022-11-26T06:28:59.502Z,63.50
2022-11-26T06:31:28.796Z,58.70
2022-11-26T06:33:57.861Z,60.90
2022-11-26T06:36:26.889Z,58.57
2022-11-26T06:38:55.966Z,50.70
2022-11-26T06:41:24.898Z,50.73
2022-11-26T06:43:53.911Z,45.30
2022-11-26T06:46:24.305Z,53.10
2022-11-26T06:48:53.247Z,49.57
2022-11-26T06:51:22.298Z,47.60
2022-11-26T06:53:51.278Z,45.33
2022-11-26T06:56:20.258Z,49.63
2022-11-26T06:58:50.078Z,49.63
2022-11-26T07:01:21.155Z,48.20
2022-11-26T07:03:51.902Z,50.03
2022-11-26T07:06:22.879Z,45.90
2022-11-26T07:08:53.271Z,49.40
2022-11-26T07:11:22.603Z,47.83
2022-11-26T07:13:51.518Z,49.43
2022-11-26T07:16:20.642Z,50.60
2022-11-26T07:18:54.315Z,48.73
2022-11-26T07:21:27.412Z,51.03
2022-11-26T07:23:56.864Z,47.50
2022-11-26T07:26:26.049Z,47.57
2022-11-26T07:28:55.235Z,43.20
2022-11-26T07:31:25.280Z,42.43
2022-11-26T07:33:55.765Z,47.90
2022-11-26T07:36:26.420Z,37.70
2022-11-26T07:38:56.055Z,45.50
2022-11-26T07:41:25.918Z,47.50
2022-11-26T07:43:55.381Z,51.17
2022-11-26T07:46:27.117Z,47.40
2022-11-26T07:48:58.339Z,52.27
2022-11-26T07:51:29.516Z,54.53
2022-11-26T07:54:00.005Z,49.20
2022-11-26T07:56:29.242Z,54.13
2022-11-26T07:58:58.255Z,48.13
2022-11-26T08:01:30.052Z,49.40
2022-11-26T08:04:01.636Z,50.33
2022-11-26T08:06:31.812Z,45.27
2022-11-26T08:09:02.547Z,47.43
2022-11-26T08:11:33.000Z,54.00
2022-11-26T08:14:04.156Z,43.33
2022-11-26T08:16:33.581Z,47.67
2022-11-26T08:19:05.976Z,46.20
2022-11-26T08:21:35.187Z,43.63
2022-11-26T08:24:05.216Z,49.20
2022-11-26T08:26:39.711Z,42.73
2022-11-26T08:29:12.789Z,43.83
2022-11-26T08:31:45.566Z,49.10
2022-11-26T08:34:18.212Z,39.60
2022-11-26T08:36:50.496Z,43.63
2022-11-26T08:39:20.448Z,41.47
2022-11-26T08:41:52.520Z,43.67
2022-11-26T08:44:22.646Z,47.13
2022-11-26T08:46:51.835Z,45.00
2022-11-26T08:49:22.454Z,44.57
2022-11-26T08:51:51.373Z,46.47
2022-11-26T08:54:20.982Z,45.03
2022-11-26T08:56:53.079Z,43.70
2022-11-26T08:59:24.576Z,42.57
2022-11-26T09:01:57.349Z,48.23
2022-11-26T09:04:29.318Z,44.83
2022-11-26T09:07:01.545Z,41.97
2022-11-26T09:09:31.446Z,41.47
2022-11-26T09:12:02.373Z,41.90
2022-11-26T09:14:36.356Z,47.27
2022-11-26T09:17:06.149Z,40.73
2022-11-26T09:19:39.798Z,49.40
2022-11-26T09:22:12.217Z,48.00
2022-11-26T09:24:41.713Z,43.87
2022-11-26T09:27:15.200Z,41.20
2022-11-26T09:29:44.204Z,44.90
2022-11-26T09:32:24.421Z,43.53
2022-11-26T09:34:56.712Z,40.90
2022-11-26T09:37:26.073Z,43.20
2022-11-26T09:39:55.536Z,42.67
2022-11-26T09:42:38.638Z,38.30
2022-11-26T09:45:14.137Z,37.90
2022-11-26T09:47:45.832Z,36.73
2022-11-26T09:50:24.997Z,43.40
2022-11-26T09:52:58.775Z,38.90
2022-11-26T09:55:31.453Z,36.13
2022-11-26T09:58:11.768Z,30.83
2022-11-26T10:00:44.070Z,31.87
2022-11-26T10:03:16.200Z,37.37
2022-11-26T10:05:52.306Z,31.33
2022-11-26T10:09:12.449Z,34.77
2022-11-26T10:11:50.302Z,34.33
2022-11-26T10:14:34.658Z,37.67
2022-11-26T10:17:20.623Z,41.03
2022-11-26T10:20:04.306Z,35.83
2022-11-26T10:22:39.036Z,36.77
2022-11-26T10:25:16.597Z,37.43
2022-11-26T10:27:45.739Z,34.37
2022-11-26T10:30:20.418Z,36.97
2022-11-26T10:32:51.034Z,36.43
2022-11-26T10:35:22.475Z,35.70
2022-11-26T10:37:53.152Z,31.93
2022-11-26T10:40:25.889Z,36.53
2022-11-26T10:43:04.153Z,36.73
2022-11-26T10:45:39.622Z,33.80
2022-11-26T10:48:23.150Z,38.97
2022-11-26T10:51:02.223Z,36.60
2022-11-26T10:53:37.207Z,37.43
2022-11-26T10:56:08.590Z,42.95
2022-11-26T10:58:43.781Z,37.67
2022-11-26T11:01:15.494Z,37.57
2022-11-26T11:04:08.764Z,32.37
2022-11-26T11:06:42.375Z,35.40
2022-11-26T11:09:34.049Z,39.50
2022-11-26T11:12:24.289Z,35.50
2022-11-26T11:14:53.915Z,38.43
2022-11-26T11:17:36.903Z,41.17
2022-11-26T11:20:43.882Z,42.60
2022-11-26T11:23:34.747Z,38.13
2022-11-26T11:26:17.503Z,38.17
2022-11-26T11:28:51.252Z,39.70
2022-11-26T11:31:22.977Z,40.27
2022-11-26T11:33:53.577Z,40.70
2022-11-26T11:36:28.720Z,37.33
2022-11-26T11:38:59.039Z,33.90
2022-11-26T11:41:37.126Z,33.43
2022-11-26T11:44:15.132Z,37.70
2022-11-26T11:47:06.409Z,41.03
2022-11-26T11:49:50.753Z,36.10
2022-11-26T11:52:31.554Z,38.13
2022-11-26T11:55:08.520Z,37.17
2022-11-26T11:57:54.696Z,36.60
2022-11-26T12:00:27.840Z,40.73
2022-11-26T12:03:17.276Z,34.13
2022-11-26T12:06:13.427Z,33.97
2022-11-26T12:08:53.855Z,37.13
2022-11-26T12:11:38.680Z,33.60
2022-11-26T12:14:18.986Z,34.10
2022-11-26T12:16:51.806Z,41.23
2022-11-26T12:19:30.560Z,37.47
2022-11-26T12:22:07.181Z,34.13
2022-11-26T12:24:41.644Z,36.37
2022-11-26T12:27:24.057Z,31.67
2022-11-26T12:29:59.440Z,31.93
2022-11-26T12:32:36.291Z,30.63
2022-11-26T12:35:13.631Z,31.77
2022-11-26T12:37:44.260Z,30.00
2022-11-26T12:40:26.101Z,37.07
2022-11-26T12:43:01.298Z,34.40
2022-11-26T12:45:44.043Z,34.23
2022-11-26T12:48:25.154Z,34.93
2022-11-26T12:50:57.488Z,33.00
2022-11-26T12:53:38.490Z,34.93
2022-11-26T12:56:16.197Z,30.80
2022-11-26T12:58:54.850Z,37.70
2022-11-26T13:01:25.627Z,31.37
2022-11-26T13:04:14.455Z,36.63
2022-11-26T13:07:07.066Z,38.93
2022-11-26T13:09:52.060Z,39.13
2022-11-26T13:12:31.865Z,38.40
2022-11-26T13:15:11.082Z,37.40
2022-11-26T13:17:44.922Z,37.57
2022-11-26T13:20:36.327Z,38.33
2022-11-26T13:23:18.459Z,34.20
2022-11-26T13:26:09.216Z,33.50
2022-11-26T13:29:01.459Z,38.30
2022-11-26T13:31:50.756Z,41.80
2022-11-26T13:34:38.218Z,42.47
2022-11-26T13:37:43.976Z,40.93
2022-11-26T13:40:53.497Z,37.53
2022-11-26T13:43:53.858Z,37.87
2022-11-26T13:46:26.094Z,39.47
2022-11-26T13:49:01.679Z,39.60
2022-11-26T13:51:37.635Z,40.23
2022-11-26T13:54:12.981Z,38.93
2022-11-26T13:56:44.450Z,40.13
2022-11-26T13:59:21.662Z,39.23
2022-11-26T14:01:53.333Z,44.03
2022-11-26T14:04:53.578Z,46.13
2022-11-26T14:07:24.245Z,37.30
2022-11-26T14:09:56.500Z,43.40
2022-11-26T14:12:46.882Z,40.30
2022-11-26T14:15:54.616Z,41.40
2022-11-26T14:19:01.001Z,40.20
2022-11-26T14:21:31.775Z,38.47
2022-11-26T14:24:03.246Z,41.07
2022-11-26T14:26:38.218Z,42.13
2022-11-26T14:29:17.757Z,41.77
2022-11-26T14:31:52.611Z,43.63
2022-11-26T14:34:28.110Z,42.70
2022-11-26T14:36:59.472Z,45.60
2022-11-26T14:39:31.879Z,44.90
2022-11-26T14:42:06.065Z,44.63
2022-11-26T14:44:35.794Z,44.87
2022-11-26T14:47:12.767Z,38.73
2022-11-26T14:49:45.881Z,41.07
2022-11-26T14:52:23.561Z,40.17
2022-11-26T14:54:57.356Z,40.03
2022-11-26T14:57:30.471Z,42.60
2022-11-26T15:00:01.074Z,37.97
2022-11-26T15:02:32.039Z,36.27
2022-11-26T15:05:03.152Z,36.03
2022-11-26T15:07:33.271Z,33.63
2022-11-26T15:10:06.078Z,37.03
2022-11-26T15:12:37.338Z,36.70
2022-11-26T15:15:07.675Z,34.83
2022-11-26T15:17:37.722Z,36.30
2022-11-26T15:20:09.878Z,43.30
2022-11-26T15:22:42.730Z,39.70
2022-11-26T15:25:19.401Z,39.73
2022-11-26T15:27:56.343Z,39.50
2022-11-26T15:30:28.204Z,40.27
2022-11-26T15:33:02.474Z,41.00
2022-11-26T15:35:33.500Z,40.37
2022-11-26T15:38:03.056Z,39.83
2022-11-26T15:40:46.398Z,39.47
2022-11-26T15:43:22.178Z,40.83
2022-11-26T15:45:52.354Z,38.60
2022-11-26T15:48:44.099Z,38.80
2022-11-26T15:51:22.856Z,39.37
2022-11-26T15:53:52.537Z,39.17
2022-11-26T15:56:26.954Z,37.33
2022-11-26T15:58:59.600Z,33.27
2022-11-26T16:01:32.800Z,31.83
2022-11-26T16:04:06.313Z,32.83
2022-11-26T16:06:37.243Z,33.13
2022-11-26T16:09:27.723Z,36.93
2022-11-26T16:12:02.978Z,33.37
2022-11-26T16:14:34.141Z,34.70
2022-11-26T16:17:08.513Z,35.93
2022-11-26T16:19:39.206Z,32.97
2022-11-26T16:22:09.031Z,32.57
2022-11-26T16:24:41.249Z,35.23
2022-11-26T16:27:28.563Z,34.97
2022-11-26T16:29:58.059Z,37.50
2022-11-26T16:32:27.590Z,37.50
2022-11-26T16:34:56.578Z,36.53
2022-11-26T16:37:28.202Z,40.53
2022-11-26T16:40:03.860Z,39.03
2022-11-26T16:42:34.852Z,38.33
2022-11-26T16:45:04.505Z,34.10
2022-11-26T16:47:37.259Z,39.33
2022-11-26T16:50:13.373Z,38.67
2022-11-26T16:52:44.080Z,38.30
2022-11-26T16:55:15.079Z,37.63
2022-11-26T16:57:49.021Z,34.90
2022-11-26T17:00:21.480Z,35.23
2022-11-26T17:02:50.896Z,34.30
2022-11-26T17:05:21.312Z,32.63
2022-11-26T17:07:54.514Z,33.80
2022-11-26T17:10:26.501Z,32.20
2022-11-26T17:12:57.252Z,30.73
2022-11-26T17:15:26.682Z,31.70
2022-11-26T17:18:02.040Z,33.50
2022-11-26T17:20:31.403Z,27.17
2022-11-26T17:23:00.508Z,28.80
2022-11-26T17:25:30.259Z,30.20
2022-11-26T17:28:01.169Z,31.77
2022-11-26T17:30:30.445Z,29.03
2022-11-26T17:32:59.521Z,28.90
2022-11-26T17:35:28.812Z,28.13
2022-11-26T17:37:58.058Z,27.10
2022-11-26T17:40:29.485Z,28.70
2022-11-26T17:43:04.349Z,29.57
2022-11-26T17:45:33.500Z,34.83
2022-11-26T17:48:02.660Z,33.23
2022-11-26T17:50:32.874Z,30.23
2022-11-26T17:53:02.467Z,32.30
2022-11-26T17:55:32.005Z,30.17
2022-11-26T17:58:02.555Z,30.83
2022-11-26T18:00:31.888Z,30.97
2022-11-26T18:03:01.118Z,27.63
2022-11-26T18:05:31.218Z,29.00
2022-11-26T18:08:00.327Z,27.33
2022-11-26T18:10:29.553Z,28.10
2022-11-26T18:12:59.071Z,25.07
2022-11-26T18:15:29.725Z,27.93
2022-11-26T18:17:58.716Z,25.70
2022-11-26T18:20:30.538Z,23.87
2022-11-26T18:23:03.466Z,27.13
2022-11-26T18:25:36.979Z,25.53
2022-11-26T18:28:06.141Z,26.50
2022-11-26T18:30:37.033Z,30.73
2022-11-26T18:33:06.442Z,25.13
2022-11-26T18:35:35.562Z,26.67
2022-11-26T18:38:08.280Z,28.77
2022-11-26T18:40:38.383Z,27.57
2022-11-26T18:43:07.641Z,33.97
2022-11-26T18:45:38.435Z,30.10
2022-11-26T18:48:08.399Z,28.63
2022-11-26T18:50:38.779Z,30.97
2022-11-26T18:53:09.241Z,29.63
2022-11-26T18:55:41.182Z,28.87
2022-11-26T18:58:10.341Z,28.10
2022-11-26T19:00:40.976Z,28.13
2022-11-26T19:03:09.976Z,28.70
2022-11-26T19:05:39.466Z,24.50
2022-11-26T19:08:12.647Z,27.33
2022-11-26T19:10:42.240Z,26.47
2022-11-26T19:13:11.768Z,26.10
2022-11-26T19:15:44.484Z,23.20
2022-11-26T19:18:15.079Z,27.30
2022-11-26T19:20:53.482Z,25.03
2022-11-26T19:23:26.215Z,27.93
2022-11-26T19:25:55.706Z,24.83
2022-11-26T19:28:28.120Z,28.80
2022-11-26T19:31:05.100Z,25.73
2022-11-26T19:33:35.360Z,29.50
2022-11-26T19:36:06.819Z,28.93
2022-11-26T19:38:36.959Z,29.53
2022-11-26T19:41:08.061Z,28.30
2022-11-26T19:43:39.961Z,28.73
2022-11-26T19:46:12.773Z,30.17
2022-11-26T19:48:44.160Z,30.40
2022-11-26T19:51:14.926Z,33.50
2022-11-26T19:53:44.979Z,33.10
2022-11-26T19:56:17.879Z,30.73
2022-11-26T19:58:47.862Z,34.10
2022-11-26T20:01:19.027Z,32.57
2022-11-26T20:03:48.481Z,33.57
2022-11-26T20:06:19.563Z,35.03
2022-11-26T20:08:49.600Z,32.57
2022-11-26T20:11:20.697Z,33.53
2022-11-26T20:13:51.520Z,32.23
2022-11-26T20:16:23.715Z,32.57
2022-11-26T20:18:53.467Z,32.87
2022-11-26T20:21:27.215Z,33.60
2022-11-26T20:24:00.149Z,33.70
2022-11-26T20:26:35.493Z,35.57
2022-11-26T20:29:06.831Z,34.50
2022-11-26T20:31:42.181Z,39.20
2022-11-26T20:34:11.819Z,37.63
2022-11-26T20:36:41.551Z,42.43
2022-11-26T20:39:15.542Z,35.70
2022-11-26T20:41:45.563Z,37.57
2022-11-26T20:44:16.893Z,37.20
2022-11-26T20:46:48.000Z,45.13
2022-11-26T20:49:17.689Z,39.07
2022-11-26T20:51:47.240Z,48.60
2022-11-26T20:54:16.742Z,47.70
2022-11-26T20:56:46.419Z,44.67
2022-11-26T20:59:15.640Z,45.93
2022-11-26T21:01:44.986Z,48.60
2022-11-26T21:04:15.920Z,44.50
2022-11-26T21:06:45.741Z,47.87
2022-11-26T21:09:15.302Z,47.10
2022-11-26T21:11:44.351Z,50.30
2022-11-26T21:14:15.185Z,49.50
2022-11-26T21:16:44.644Z,43.87
2022-11-26T21:19:15.381Z,45.60
2022-11-26T21:21:44.900Z,45.80
2022-11-26T21:24:14.784Z,44.20
2022-11-26T21:26:46.440Z,46.63
2022-11-26T21:29:15.819Z,42.70
2022-11-26T21:31:45.239Z,42.13
2022-11-26T21:34:16.513Z,38.93
2022-11-26T21:36:45.523Z,47.13
2022-11-26T21:39:17.578Z,42.17
2022-11-26T21:41:47.111Z,40.97
2022-11-26T21:44:17.244Z,39.30
2022-11-26T21:46:46.639Z,44.23
2022-11-26T21:49:17.522Z,46.37
2022-11-26T21:51:46.601Z,42.13
2022-11-26T21:54:15.566Z,44.77
2022-11-26T21:56:44.587Z,42.80
2022-11-26T21:59:13.711Z,44.37
2022-11-26T22:01:43.172Z,42.73
2022-11-26T22:04:15.356Z,41.53
2022-11-26T22:06:47.503Z,43.90
2022-11-26T22:09:18.407Z,40.50
2022-11-26T22:11:47.822Z,39.67
2022-11-26T22:14:17.959Z,43.60
2022-11-26T22:16:48.379Z,40.67
2022-11-26T22:19:17.376Z,39.77
2022-11-26T22:21:48.015Z,42.33
2022-11-26T22:24:18.575Z,36.57
2022-11-26T22:26:49.137Z,39.73
2022-11-26T22:29:20.110Z,41.60
2022-11-26T22:31:50.592Z,39.87
2022-11-26T22:34:22.276Z,41.13
2022-11-26T22:36:53.258Z,41.23
2022-11-26T22:39:22.146Z,44.50
2022-11-26T22:41:51.325Z,41.97
2022-11-26T22:44:20.343Z,40.03
2022-11-26T22:46:49.370Z,43.27
2022-11-26T22:49:19.241Z,39.33
2022-11-26T22:51:48.436Z,45.90
2022-11-26T22:54:19.592Z,42.47
2022-11-26T22:56:48.536Z,40.20
2022-11-26T22:59:17.663Z,43.57
2022-11-26T23:01:46.722Z,34.60
2022-11-26T23:04:15.681Z,41.93
2022-11-26T23:06:44.653Z,38.33
2022-11-26T23:09:14.688Z,41.43
2022-11-26T23:11:45.504Z,42.30
2022-11-26T23:14:14.455Z,45.60
2022-11-26T23:16:44.426Z,43.70
2022-11-26T23:19:15.697Z,38.07
2022-11-26T23:21:47.022Z,40.97
2022-11-26T23:24:17.000Z,39.87
2022-11-26T23:26:47.408Z,38.47
2022-11-26T23:29:16.532Z,39.93
2022-11-26T23:31:46.037Z,37.43
2022-11-26T23:34:15.835Z,41.00
2022-11-26T23:36:44.845Z,40.50
2022-11-26T23:39:14.604Z,39.80
2022-11-26T23:41:43.891Z,38.50
2022-11-26T23:44:14.331Z,44.10
2022-11-26T23:46:43.282Z,43.07
2022-11-26T23:49:12.683Z,41.93
2022-11-26T23:51:41.771Z,44.67
2022-11-26T23:54:10.671Z,41.57
2022-11-26T23:56:40.362Z,39.57
2022-11-26T23:59:09.282Z,36.77
